sensor_id;sensor_type;location;lat;lon;timestamp;P1;durP1;ratioP1;P2;durP2;ratioP2
71610;SDS011;59459;51.172;6.682;2023-08-08T00:01:01;3.57;;;1.00;;
71610;SDS011;59459;51.172;6.682;2023-08-08T00:03:27;4.65;;;0.85;;
71610;SDS011;59459;51.172;6.682;2023-08-08T00:05:52;2.50;;;0.90;;
71610;SDS011;59459;51.172;6.682;2023-08-08T00:08:17;3.60;;;1.10;;
71610;SDS011;59459;51.172;6.682;2023-08-08T00:10:42;3.50;;;1.03;;
71610;SDS011;59459;51.172;6.682;2023-08-08T00:13:08;5.10;;;1.10;;
71610;SDS011;59459;51.172;6.682;2023-08-08T00:15:33;7.20;;;1.37;;
71610;SDS011;59459;51.172;6.682;2023-08-08T00:17:58;3.43;;;0.80;;
71610;SDS011;59459;51.172;6.682;2023-08-08T00:20:23;3.27;;;1.33;;
71610;SDS011;59459;51.172;6.682;2023-08-08T00:22:49;7.60;;;1.50;;
71610;SDS011;59459;51.172;6.682;2023-08-08T00:25:14;5.13;;;1.23;;
71610;SDS011;59459;51.172;6.682;2023-08-08T00:27:39;3.50;;;1.00;;
71610;SDS011;59459;51.172;6.682;2023-08-08T00:30:09;5.03;;;1.30;;
71610;SDS011;59459;51.172;6.682;2023-08-08T00:32:34;4.63;;;1.23;;
71610;SDS011;59459;51.172;6.682;2023-08-08T00:34:59;5.67;;;2.00;;
71610;SDS011;59459;51.172;6.682;2023-08-08T00:37:24;4.37;;;0.97;;
71610;SDS011;59459;51.172;6.682;2023-08-08T00:39:50;5.43;;;1.40;;
71610;SDS011;59459;51.172;6.682;2023-08-08T00:42:15;4.83;;;1.20;;
71610;SDS011;59459;51.172;6.682;2023-08-08T00:44:40;4.30;;;1.53;;
71610;SDS011;59459;51.172;6.682;2023-08-08T00:47:06;4.13;;;1.60;;
71610;SDS011;59459;51.172;6.682;2023-08-08T00:49:32;5.45;;;1.48;;
71610;SDS011;59459;51.172;6.682;2023-08-08T00:51:57;4.83;;;2.03;;
71610;SDS011;59459;51.172;6.682;2023-08-08T00:54:22;4.67;;;1.40;;
71610;SDS011;59459;51.172;6.682;2023-08-08T00:56:47;6.77;;;1.60;;
71610;SDS011;59459;51.172;6.682;2023-08-08T00:59:13;4.00;;;1.57;;
71610;SDS011;59459;51.172;6.682;2023-08-08T01:01:38;7.80;;;1.67;;
71610;SDS011;59459;51.172;6.682;2023-08-08T01:04:04;4.10;;;1.83;;
71610;SDS011;59459;51.172;6.682;2023-08-08T01:09:05;5.13;;;1.60;;
71610;SDS011;59459;51.172;6.682;2023-08-08T01:11:33;6.50;;;1.93;;
71610;SDS011;59459;51.172;6.682;2023-08-08T01:14:00;5.40;;;1.70;;
71610;SDS011;59459;51.172;6.682;2023-08-08T01:16:26;5.35;;;1.80;;
71610;SDS011;59459;51.172;6.682;2023-08-08T01:18:51;4.07;;;1.33;;
71610;SDS011;59459;51.172;6.682;2023-08-08T01:21:17;7.93;;;2.00;;
71610;SDS011;59459;51.172;6.682;2023-08-08T01:23:43;4.40;;;1.63;;
71610;SDS011;59459;51.172;6.682;2023-08-08T01:26:10;4.47;;;1.67;;
71610;SDS011;59459;51.172;6.682;2023-08-08T01:28:35;6.70;;;2.17;;
71610;SDS011;59459;51.172;6.682;2023-08-08T01:31:01;5.37;;;1.90;;
71610;SDS011;59459;51.172;6.682;2023-08-08T01:33:26;5.87;;;1.77;;
71610;SDS011;59459;51.172;6.682;2023-08-08T01:35:56;4.70;;;1.80;;
71610;SDS011;59459;51.172;6.682;2023-08-08T01:38:25;4.32;;;1.73;;
71610;SDS011;59459;51.172;6.682;2023-08-08T01:40:51;4.88;;;1.70;;
71610;SDS011;59459;51.172;6.682;2023-08-08T01:43:17;6.05;;;1.58;;
71610;SDS011;59459;51.172;6.682;2023-08-08T01:45:43;6.70;;;1.90;;
71610;SDS011;59459;51.172;6.682;2023-08-08T01:48:09;5.83;;;1.60;;
71610;SDS011;59459;51.172;6.682;2023-08-08T01:50:35;4.53;;;1.77;;
71610;SDS011;59459;51.172;6.682;2023-08-08T01:53:00;5.65;;;1.52;;
71610;SDS011;59459;51.172;6.682;2023-08-08T01:55:26;7.97;;;1.93;;
71610;SDS011;59459;51.172;6.682;2023-08-08T01:57:51;4.73;;;1.67;;
71610;SDS011;59459;51.172;6.682;2023-08-08T02:00:16;9.27;;;3.17;;
71610;SDS011;59459;51.172;6.682;2023-08-08T02:02:41;3.40;;;1.20;;
71610;SDS011;59459;51.172;6.682;2023-08-08T02:05:06;7.23;;;1.97;;
71610;SDS011;59459;51.172;6.682;2023-08-08T02:07:32;5.23;;;1.70;;
71610;SDS011;59459;51.172;6.682;2023-08-08T02:09:57;4.67;;;1.60;;
71610;SDS011;59459;51.172;6.682;2023-08-08T02:12:22;5.23;;;1.60;;
71610;SDS011;59459;51.172;6.682;2023-08-08T02:14:47;7.20;;;1.40;;
71610;SDS011;59459;51.172;6.682;2023-08-08T02:17:13;6.73;;;1.43;;
71610;SDS011;59459;51.172;6.682;2023-08-08T02:19:38;4.57;;;1.50;;
71610;SDS011;59459;51.172;6.682;2023-08-08T02:22:03;6.73;;;1.60;;
71610;SDS011;59459;51.172;6.682;2023-08-08T02:24:28;4.87;;;1.60;;
71610;SDS011;59459;51.172;6.682;2023-08-08T02:26:54;5.90;;;1.50;;
71610;SDS011;59459;51.172;6.682;2023-08-08T02:29:19;5.03;;;1.87;;
71610;SDS011;59459;51.172;6.682;2023-08-08T02:31:44;4.20;;;1.37;;
71610;SDS011;59459;51.172;6.682;2023-08-08T02:34:09;4.13;;;1.30;;
71610;SDS011;59459;51.172;6.682;2023-08-08T02:36:35;4.73;;;1.70;;
71610;SDS011;59459;51.172;6.682;2023-08-08T02:39:00;4.70;;;1.40;;
71610;SDS011;59459;51.172;6.682;2023-08-08T02:41:25;6.23;;;1.53;;
71610;SDS011;59459;51.172;6.682;2023-08-08T02:43:50;4.77;;;1.00;;
71610;SDS011;59459;51.172;6.682;2023-08-08T02:46:16;6.53;;;1.73;;
71610;SDS011;59459;51.172;6.682;2023-08-08T02:48:41;8.40;;;2.07;;
71610;SDS011;59459;51.172;6.682;2023-08-08T02:51:06;4.00;;;1.33;;
71610;SDS011;59459;51.172;6.682;2023-08-08T02:53:31;6.23;;;1.23;;
71610;SDS011;59459;51.172;6.682;2023-08-08T02:55:57;6.27;;;1.43;;
71610;SDS011;59459;51.172;6.682;2023-08-08T02:58:22;6.07;;;1.50;;
71610;SDS011;59459;51.172;6.682;2023-08-08T03:00:47;5.03;;;1.17;;
71610;SDS011;59459;51.172;6.682;2023-08-08T03:03:12;6.50;;;1.77;;
71610;SDS011;59459;51.172;6.682;2023-08-08T03:05:37;4.95;;;1.70;;
71610;SDS011;59459;51.172;6.682;2023-08-08T03:08:03;3.20;;;1.30;;
71610;SDS011;59459;51.172;6.682;2023-08-08T03:10:28;4.97;;;1.53;;
71610;SDS011;59459;51.172;6.682;2023-08-08T03:12:53;7.07;;;2.03;;
71610;SDS011;59459;51.172;6.682;2023-08-08T03:15:18;7.73;;;1.90;;
71610;SDS011;59459;51.172;6.682;2023-08-08T03:17:44;4.93;;;1.60;;
71610;SDS011;59459;51.172;6.682;2023-08-08T03:20:09;4.33;;;1.63;;
71610;SDS011;59459;51.172;6.682;2023-08-08T03:22:35;5.20;;;1.77;;
71610;SDS011;59459;51.172;6.682;2023-08-08T03:25:01;6.40;;;1.70;;
71610;SDS011;59459;51.172;6.682;2023-08-08T03:27:26;5.10;;;1.77;;
71610;SDS011;59459;51.172;6.682;2023-08-08T03:29:51;10.03;;;1.60;;
71610;SDS011;59459;51.172;6.682;2023-08-08T03:32:16;6.03;;;1.70;;
71610;SDS011;59459;51.172;6.682;2023-08-08T03:34:41;4.37;;;1.33;;
71610;SDS011;59459;51.172;6.682;2023-08-08T03:37:07;8.07;;;1.77;;
71610;SDS011;59459;51.172;6.682;2023-08-08T03:39:32;5.83;;;1.90;;
71610;SDS011;59459;51.172;6.682;2023-08-08T03:41:57;5.80;;;1.43;;
71610;SDS011;59459;51.172;6.682;2023-08-08T03:44:22;4.03;;;1.47;;
71610;SDS011;59459;51.172;6.682;2023-08-08T03:46:47;6.73;;;1.90;;
71610;SDS011;59459;51.172;6.682;2023-08-08T03:49:13;5.00;;;1.77;;
71610;SDS011;59459;51.172;6.682;2023-08-08T03:51:38;5.57;;;1.77;;
71610;SDS011;59459;51.172;6.682;2023-08-08T03:54:03;6.97;;;2.00;;
71610;SDS011;59459;51.172;6.682;2023-08-08T03:56:28;5.23;;;1.70;;
71610;SDS011;59459;51.172;6.682;2023-08-08T03:58:54;4.37;;;1.67;;
71610;SDS011;59459;51.172;6.682;2023-08-08T04:01:19;6.00;;;1.73;;
71610;SDS011;59459;51.172;6.682;2023-08-08T04:03:44;4.57;;;1.73;;
71610;SDS011;59459;51.172;6.682;2023-08-08T04:06:09;7.97;;;1.97;;
71610;SDS011;59459;51.172;6.682;2023-08-08T04:08:35;5.23;;;1.73;;
71610;SDS011;59459;51.172;6.682;2023-08-08T04:11:00;5.47;;;2.00;;
71610;SDS011;59459;51.172;6.682;2023-08-08T04:13:25;5.97;;;1.67;;
71610;SDS011;59459;51.172;6.682;2023-08-08T04:15:50;5.33;;;1.77;;
71610;SDS011;59459;51.172;6.682;2023-08-08T04:18:17;5.00;;;1.60;;
71610;SDS011;59459;51.172;6.682;2023-08-08T04:20:42;6.57;;;1.73;;
71610;SDS011;59459;51.172;6.682;2023-08-08T04:23:07;6.37;;;1.80;;
71610;SDS011;59459;51.172;6.682;2023-08-08T04:25:32;7.73;;;2.17;;
71610;SDS011;59459;51.172;6.682;2023-08-08T04:27:58;5.40;;;1.90;;
71610;SDS011;59459;51.172;6.682;2023-08-08T04:30:23;6.23;;;1.70;;
71610;SDS011;59459;51.172;6.682;2023-08-08T04:32:48;6.07;;;2.13;;
71610;SDS011;59459;51.172;6.682;2023-08-08T04:35:13;8.03;;;2.27;;
71610;SDS011;59459;51.172;6.682;2023-08-08T04:37:39;7.67;;;1.90;;
71610;SDS011;59459;51.172;6.682;2023-08-08T04:40:05;5.07;;;1.73;;
71610;SDS011;59459;51.172;6.682;2023-08-08T04:42:30;7.50;;;1.95;;
71610;SDS011;59459;51.172;6.682;2023-08-08T04:44:55;6.13;;;1.70;;
71610;SDS011;59459;51.172;6.682;2023-08-08T04:47:20;12.60;;;2.10;;
71610;SDS011;59459;51.172;6.682;2023-08-08T04:49:46;7.50;;;2.20;;
71610;SDS011;59459;51.172;6.682;2023-08-08T04:52:11;7.33;;;2.00;;
71610;SDS011;59459;51.172;6.682;2023-08-08T04:54:36;6.73;;;2.50;;
71610;SDS011;59459;51.172;6.682;2023-08-08T04:57:01;6.57;;;2.10;;
71610;SDS011;59459;51.172;6.682;2023-08-08T04:59:27;10.00;;;2.40;;
71610;SDS011;59459;51.172;6.682;2023-08-08T05:01:52;11.80;;;3.17;;
71610;SDS011;59459;51.172;6.682;2023-08-08T05:04:17;8.27;;;2.00;;
71610;SDS011;59459;51.172;6.682;2023-08-08T05:06:42;6.57;;;2.40;;
71610;SDS011;59459;51.172;6.682;2023-08-08T05:09:08;9.77;;;2.70;;
71610;SDS011;59459;51.172;6.682;2023-08-08T05:11:34;9.88;;;2.50;;
71610;SDS011;59459;51.172;6.682;2023-08-08T05:13:59;9.63;;;3.03;;
71610;SDS011;59459;51.172;6.682;2023-08-08T05:16:24;9.13;;;2.77;;
71610;SDS011;59459;51.172;6.682;2023-08-08T05:18:50;7.53;;;2.70;;
71610;SDS011;59459;51.172;6.682;2023-08-08T05:21:15;8.50;;;2.60;;
71610;SDS011;59459;51.172;6.682;2023-08-08T05:23:40;10.60;;;3.30;;
71610;SDS011;59459;51.172;6.682;2023-08-08T05:26:05;9.77;;;2.83;;
71610;SDS011;59459;51.172;6.682;2023-08-08T05:28:31;6.90;;;2.50;;
71610;SDS011;59459;51.172;6.682;2023-08-08T05:30:56;11.57;;;2.97;;
71610;SDS011;59459;51.172;6.682;2023-08-08T05:33:22;11.20;;;2.93;;
71610;SDS011;59459;51.172;6.682;2023-08-08T05:35:47;12.97;;;3.13;;
71610;SDS011;59459;51.172;6.682;2023-08-08T05:38:12;5.87;;;2.20;;
71610;SDS011;59459;51.172;6.682;2023-08-08T05:40:37;9.87;;;2.30;;
71610;SDS011;59459;51.172;6.682;2023-08-08T05:43:03;9.57;;;3.90;;
71610;SDS011;59459;51.172;6.682;2023-08-08T05:45:28;10.25;;;3.20;;
71610;SDS011;59459;51.172;6.682;2023-08-08T05:47:53;9.93;;;3.40;;
71610;SDS011;59459;51.172;6.682;2023-08-08T05:50:20;8.90;;;3.20;;
71610;SDS011;59459;51.172;6.682;2023-08-08T05:52:45;8.37;;;3.00;;
71610;SDS011;59459;51.172;6.682;2023-08-08T05:55:10;8.63;;;3.47;;
71610;SDS011;59459;51.172;6.682;2023-08-08T05:57:36;10.07;;;3.10;;
71610;SDS011;59459;51.172;6.682;2023-08-08T06:00:02;8.02;;;2.75;;
71610;SDS011;59459;51.172;6.682;2023-08-08T06:02:28;9.90;;;3.10;;
71610;SDS011;59459;51.172;6.682;2023-08-08T06:04:53;6.30;;;2.50;;
71610;SDS011;59459;51.172;6.682;2023-08-08T06:07:18;8.77;;;2.90;;
71610;SDS011;59459;51.172;6.682;2023-08-08T06:09:44;9.25;;;2.17;;
71610;SDS011;59459;51.172;6.682;2023-08-08T06:12:09;9.60;;;3.13;;
71610;SDS011;59459;51.172;6.682;2023-08-08T06:14:34;7.53;;;2.87;;
71610;SDS011;59459;51.172;6.682;2023-08-08T06:17:00;11.37;;;2.43;;
71610;SDS011;59459;51.172;6.682;2023-08-08T06:19:25;11.33;;;2.70;;
71610;SDS011;59459;51.172;6.682;2023-08-08T06:21:50;7.20;;;2.37;;
71610;SDS011;59459;51.172;6.682;2023-08-08T06:24:15;9.37;;;2.67;;
71610;SDS011;59459;51.172;6.682;2023-08-08T06:26:41;8.57;;;2.47;;
71610;SDS011;59459;51.172;6.682;2023-08-08T06:29:06;9.37;;;2.40;;
71610;SDS011;59459;51.172;6.682;2023-08-08T06:31:31;7.27;;;2.90;;
71610;SDS011;59459;51.172;6.682;2023-08-08T06:33:56;6.53;;;2.20;;
71610;SDS011;59459;51.172;6.682;2023-08-08T06:36:21;8.93;;;2.30;;
71610;SDS011;59459;51.172;6.682;2023-08-08T06:38:47;8.17;;;2.53;;
71610;SDS011;59459;51.172;6.682;2023-08-08T06:41:12;6.50;;;2.43;;
71610;SDS011;59459;51.172;6.682;2023-08-08T06:43:37;10.03;;;3.00;;
71610;SDS011;59459;51.172;6.682;2023-08-08T06:46:03;6.37;;;2.67;;
71610;SDS011;59459;51.172;6.682;2023-08-08T06:48:28;7.80;;;2.83;;
71610;SDS011;59459;51.172;6.682;2023-08-08T06:50:53;9.27;;;2.93;;
71610;SDS011;59459;51.172;6.682;2023-08-08T06:53:19;7.17;;;3.00;;
71610;SDS011;59459;51.172;6.682;2023-08-08T06:55:44;11.17;;;3.40;;
71610;SDS011;59459;51.172;6.682;2023-08-08T06:58:09;7.43;;;3.57;;
71610;SDS011;59459;51.172;6.682;2023-08-08T07:00:34;10.70;;;2.73;;
71610;SDS011;59459;51.172;6.682;2023-08-08T07:03:00;8.03;;;2.83;;
71610;SDS011;59459;51.172;6.682;2023-08-08T07:05:25;8.07;;;3.20;;
71610;SDS011;59459;51.172;6.682;2023-08-08T07:07:51;8.02;;;3.22;;
71610;SDS011;59459;51.172;6.682;2023-08-08T07:10:16;8.87;;;3.57;;
71610;SDS011;59459;51.172;6.682;2023-08-08T07:12:41;7.47;;;2.83;;
71610;SDS011;59459;51.172;6.682;2023-08-08T07:15:10;10.93;;;2.97;;
71610;SDS011;59459;51.172;6.682;2023-08-08T07:17:35;10.10;;;3.45;;
71610;SDS011;59459;51.172;6.682;2023-08-08T07:20:00;8.70;;;2.77;;
71610;SDS011;59459;51.172;6.682;2023-08-08T07:22:26;7.32;;;2.70;;
71610;SDS011;59459;51.172;6.682;2023-08-08T07:24:51;7.90;;;2.93;;
71610;SDS011;59459;51.172;6.682;2023-08-08T07:27:16;8.23;;;2.50;;
71610;SDS011;59459;51.172;6.682;2023-08-08T07:29:41;8.17;;;3.20;;
71610;SDS011;59459;51.172;6.682;2023-08-08T07:32:07;7.83;;;3.03;;
71610;SDS011;59459;51.172;6.682;2023-08-08T07:34:32;6.87;;;3.23;;
71610;SDS011;59459;51.172;6.682;2023-08-08T07:36:58;13.40;;;3.40;;
71610;SDS011;59459;51.172;6.682;2023-08-08T07:39:23;9.00;;;2.95;;
71610;SDS011;59459;51.172;6.682;2023-08-08T07:41:48;12.37;;;3.57;;
71610;SDS011;59459;51.172;6.682;2023-08-08T07:44:14;8.00;;;3.40;;
71610;SDS011;59459;51.172;6.682;2023-08-08T07:46:39;9.37;;;2.80;;
71610;SDS011;59459;51.172;6.682;2023-08-08T07:49:04;8.07;;;2.90;;
71610;SDS011;59459;51.172;6.682;2023-08-08T07:51:30;10.03;;;3.40;;
71610;SDS011;59459;51.172;6.682;2023-08-08T07:53:55;8.17;;;3.40;;
71610;SDS011;59459;51.172;6.682;2023-08-08T07:56:20;9.27;;;3.50;;
71610;SDS011;59459;51.172;6.682;2023-08-08T07:58:45;8.57;;;2.80;;
71610;SDS011;59459;51.172;6.682;2023-08-08T08:01:10;7.90;;;2.87;;
71610;SDS011;59459;51.172;6.682;2023-08-08T08:03:36;11.93;;;3.92;;
71610;SDS011;59459;51.172;6.682;2023-08-08T08:06:02;9.47;;;3.13;;
71610;SDS011;59459;51.172;6.682;2023-08-08T08:08:27;6.13;;;2.87;;
71610;SDS011;59459;51.172;6.682;2023-08-08T08:10:52;10.55;;;3.28;;
71610;SDS011;59459;51.172;6.682;2023-08-08T08:13:18;7.63;;;3.03;;
71610;SDS011;59459;51.172;6.682;2023-08-08T08:15:43;7.57;;;3.07;;
71610;SDS011;59459;51.172;6.682;2023-08-08T08:18:08;7.97;;;3.13;;
71610;SDS011;59459;51.172;6.682;2023-08-08T08:20:33;8.93;;;3.13;;
71610;SDS011;59459;51.172;6.682;2023-08-08T08:22:59;6.63;;;3.10;;
71610;SDS011;59459;51.172;6.682;2023-08-08T08:25:24;8.90;;;3.00;;
71610;SDS011;59459;51.172;6.682;2023-08-08T08:27:49;8.40;;;3.10;;
71610;SDS011;59459;51.172;6.682;2023-08-08T08:30:15;8.93;;;2.73;;
71610;SDS011;59459;51.172;6.682;2023-08-08T08:32:40;8.70;;;2.97;;
71610;SDS011;59459;51.172;6.682;2023-08-08T08:35:06;8.53;;;3.50;;
71610;SDS011;59459;51.172;6.682;2023-08-08T08:37:32;10.00;;;2.83;;
71610;SDS011;59459;51.172;6.682;2023-08-08T08:39:57;9.87;;;3.43;;
71610;SDS011;59459;51.172;6.682;2023-08-08T08:42:22;8.30;;;4.03;;
71610;SDS011;59459;51.172;6.682;2023-08-08T08:44:48;10.43;;;3.35;;
71610;SDS011;59459;51.172;6.682;2023-08-08T08:47:14;7.63;;;3.63;;
71610;SDS011;59459;51.172;6.682;2023-08-08T08:49:42;10.38;;;3.92;;
71610;SDS011;59459;51.172;6.682;2023-08-08T08:52:10;7.13;;;3.50;;
71610;SDS011;59459;51.172;6.682;2023-08-08T08:54:36;8.95;;;3.53;;
71610;SDS011;59459;51.172;6.682;2023-08-08T08:57:01;10.70;;;3.47;;
71610;SDS011;59459;51.172;6.682;2023-08-08T08:59:26;8.00;;;3.53;;
71610;SDS011;59459;51.172;6.682;2023-08-08T09:01:51;8.67;;;3.20;;
71610;SDS011;59459;51.172;6.682;2023-08-08T09:04:18;7.82;;;3.15;;
71610;SDS011;59459;51.172;6.682;2023-08-08T09:06:43;7.67;;;2.80;;
71610;SDS011;59459;51.172;6.682;2023-08-08T09:09:09;6.53;;;3.15;;
71610;SDS011;59459;51.172;6.682;2023-08-08T09:11:34;6.63;;;3.03;;
71610;SDS011;59459;51.172;6.682;2023-08-08T09:14:00;15.03;;;3.50;;
71610;SDS011;59459;51.172;6.682;2023-08-08T09:16:25;10.13;;;3.50;;
71610;SDS011;59459;51.172;6.682;2023-08-08T09:18:50;12.07;;;4.00;;
71610;SDS011;59459;51.172;6.682;2023-08-08T09:21:17;9.65;;;3.30;;
71610;SDS011;59459;51.172;6.682;2023-08-08T09:23:43;7.75;;;2.90;;
71610;SDS011;59459;51.172;6.682;2023-08-08T09:26:09;7.85;;;2.97;;
71610;SDS011;59459;51.172;6.682;2023-08-08T09:28:34;8.87;;;3.77;;
71610;SDS011;59459;51.172;6.682;2023-08-08T09:30:59;10.10;;;3.20;;
71610;SDS011;59459;51.172;6.682;2023-08-08T09:33:28;7.73;;;3.43;;
71610;SDS011;59459;51.172;6.682;2023-08-08T09:35:54;10.10;;;3.25;;
71610;SDS011;59459;51.172;6.682;2023-08-08T09:38:20;8.98;;;3.65;;
71610;SDS011;59459;51.172;6.682;2023-08-08T09:40:45;10.83;;;3.30;;
71610;SDS011;59459;51.172;6.682;2023-08-08T09:43:11;7.55;;;3.72;;
71610;SDS011;59459;51.172;6.682;2023-08-08T09:45:40;8.67;;;3.17;;
71610;SDS011;59459;51.172;6.682;2023-08-08T09:48:06;8.27;;;3.70;;
71610;SDS011;59459;51.172;6.682;2023-08-08T09:50:35;7.13;;;3.47;;
71610;SDS011;59459;51.172;6.682;2023-08-08T09:53:01;7.07;;;3.17;;
71610;SDS011;59459;51.172;6.682;2023-08-08T09:55:27;8.88;;;3.00;;
71610;SDS011;59459;51.172;6.682;2023-08-08T09:57:53;6.30;;;3.00;;
71610;SDS011;59459;51.172;6.682;2023-08-08T10:00:18;8.73;;;2.92;;
71610;SDS011;59459;51.172;6.682;2023-08-08T10:02:45;6.67;;;2.83;;
71610;SDS011;59459;51.172;6.682;2023-08-08T10:05:12;11.00;;;3.13;;
71610;SDS011;59459;51.172;6.682;2023-08-08T10:07:39;6.43;;;2.75;;
71610;SDS011;59459;51.172;6.682;2023-08-08T10:10:05;8.40;;;3.10;;
71610;SDS011;59459;51.172;6.682;2023-08-08T10:12:31;7.10;;;2.93;;
71610;SDS011;59459;51.172;6.682;2023-08-08T10:14:56;9.03;;;3.33;;
71610;SDS011;59459;51.172;6.682;2023-08-08T10:17:23;10.32;;;3.00;;
71610;SDS011;59459;51.172;6.682;2023-08-08T10:19:54;8.57;;;3.00;;
71610;SDS011;59459;51.172;6.682;2023-08-08T10:22:21;9.45;;;3.35;;
71610;SDS011;59459;51.172;6.682;2023-08-08T10:24:50;6.30;;;2.58;;
71610;SDS011;59459;51.172;6.682;2023-08-08T10:27:16;6.78;;;3.20;;
71610;SDS011;59459;51.172;6.682;2023-08-08T10:29:51;6.97;;;3.25;;
71610;SDS011;59459;51.172;6.682;2023-08-08T10:32:22;7.17;;;3.23;;
71610;SDS011;59459;51.172;6.682;2023-08-08T10:34:48;8.43;;;3.40;;
71610;SDS011;59459;51.172;6.682;2023-08-08T10:37:15;7.60;;;3.40;;
71610;SDS011;59459;51.172;6.682;2023-08-08T10:39:53;6.70;;;3.25;;
71610;SDS011;59459;51.172;6.682;2023-08-08T10:42:19;9.40;;;3.10;;
71610;SDS011;59459;51.172;6.682;2023-08-08T10:44:50;9.23;;;3.45;;
71610;SDS011;59459;51.172;6.682;2023-08-08T10:47:20;7.93;;;3.67;;
71610;SDS011;59459;51.172;6.682;2023-08-08T10:49:46;10.10;;;3.80;;
71610;SDS011;59459;51.172;6.682;2023-08-08T10:52:20;9.07;;;3.17;;
71610;SDS011;59459;51.172;6.682;2023-08-08T10:54:51;7.50;;;3.80;;
71610;SDS011;59459;51.172;6.682;2023-08-08T10:57:16;6.68;;;3.15;;
71610;SDS011;59459;51.172;6.682;2023-08-08T10:59:44;6.30;;;3.13;;
71610;SDS011;59459;51.172;6.682;2023-08-08T11:02:09;7.40;;;3.20;;
71610;SDS011;59459;51.172;6.682;2023-08-08T11:04:34;5.93;;;2.60;;
71610;SDS011;59459;51.172;6.682;2023-08-08T11:07:01;8.98;;;3.13;;
71610;SDS011;59459;51.172;6.682;2023-08-08T11:09:27;8.33;;;2.57;;
71610;SDS011;59459;51.172;6.682;2023-08-08T11:11:52;8.47;;;2.90;;
71610;SDS011;59459;51.172;6.682;2023-08-08T11:14:19;7.00;;;2.70;;
71610;SDS011;59459;51.172;6.682;2023-08-08T11:16:45;5.93;;;3.00;;
71610;SDS011;59459;51.172;6.682;2023-08-08T11:19:11;6.43;;;2.22;;
71610;SDS011;59459;51.172;6.682;2023-08-08T11:21:38;6.30;;;2.40;;
71610;SDS011;59459;51.172;6.682;2023-08-08T11:24:04;9.15;;;3.10;;
71610;SDS011;59459;51.172;6.682;2023-08-08T11:26:30;9.20;;;2.97;;
71610;SDS011;59459;51.172;6.682;2023-08-08T11:28:57;7.40;;;2.50;;
71610;SDS011;59459;51.172;6.682;2023-08-08T11:31:23;6.43;;;2.45;;
71610;SDS011;59459;51.172;6.682;2023-08-08T11:33:49;8.77;;;3.20;;
71610;SDS011;59459;51.172;6.682;2023-08-08T11:36:14;6.35;;;2.85;;
71610;SDS011;59459;51.172;6.682;2023-08-08T11:38:40;7.67;;;2.33;;
71610;SDS011;59459;51.172;6.682;2023-08-08T11:41:06;4.40;;;2.13;;
71610;SDS011;59459;51.172;6.682;2023-08-08T11:43:31;8.70;;;2.70;;
71610;SDS011;59459;51.172;6.682;2023-08-08T11:45:59;6.17;;;2.20;;
71610;SDS011;59459;51.172;6.682;2023-08-08T11:48:25;6.60;;;2.10;;
71610;SDS011;59459;51.172;6.682;2023-08-08T11:50:52;5.05;;;2.08;;
71610;SDS011;59459;51.172;6.682;2023-08-08T11:53:18;6.30;;;2.22;;
71610;SDS011;59459;51.172;6.682;2023-08-08T11:55:43;6.43;;;2.30;;
71610;SDS011;59459;51.172;6.682;2023-08-08T11:58:12;8.43;;;3.07;;
71610;SDS011;59459;51.172;6.682;2023-08-08T12:00:37;8.13;;;2.75;;
71610;SDS011;59459;51.172;6.682;2023-08-08T12:03:02;5.67;;;2.37;;
71610;SDS011;59459;51.172;6.682;2023-08-08T12:05:29;9.95;;;3.17;;
71610;SDS011;59459;51.172;6.682;2023-08-08T12:07:55;6.17;;;2.73;;
71610;SDS011;59459;51.172;6.682;2023-08-08T12:10:21;5.00;;;2.40;;
71610;SDS011;59459;51.172;6.682;2023-08-08T12:12:47;8.53;;;3.03;;
71610;SDS011;59459;51.172;6.682;2023-08-08T12:15:17;6.75;;;2.70;;
71610;SDS011;59459;51.172;6.682;2023-08-08T12:17:42;7.80;;;2.50;;
71610;SDS011;59459;51.172;6.682;2023-08-08T12:20:07;5.27;;;2.43;;
71610;SDS011;59459;51.172;6.682;2023-08-08T12:22:34;6.82;;;2.45;;
71610;SDS011;59459;51.172;6.682;2023-08-08T12:25:00;6.37;;;2.50;;
71610;SDS011;59459;51.172;6.682;2023-08-08T12:27:25;4.53;;;2.08;;
71610;SDS011;59459;51.172;6.682;2023-08-08T12:29:51;7.80;;;2.40;;
71610;SDS011;59459;51.172;6.682;2023-08-08T12:32:17;8.57;;;2.50;;
71610;SDS011;59459;51.172;6.682;2023-08-08T12:34:42;6.68;;;2.60;;
71610;SDS011;59459;51.172;6.682;2023-08-08T12:37:08;5.80;;;2.30;;
71610;SDS011;59459;51.172;6.682;2023-08-08T12:39:33;5.00;;;2.13;;
71610;SDS011;59459;51.172;6.682;2023-08-08T12:41:58;6.77;;;3.10;;
71610;SDS011;59459;51.172;6.682;2023-08-08T12:44:23;5.40;;;2.90;;
71610;SDS011;59459;51.172;6.682;2023-08-08T12:46:48;5.77;;;2.90;;
71610;SDS011;59459;51.172;6.682;2023-08-08T12:49:14;8.63;;;3.13;;
71610;SDS011;59459;51.172;6.682;2023-08-08T12:51:39;8.70;;;3.30;;
71610;SDS011;59459;51.172;6.682;2023-08-08T12:54:04;7.97;;;2.90;;
71610;SDS011;59459;51.172;6.682;2023-08-08T12:56:29;7.53;;;3.00;;
71610;SDS011;59459;51.172;6.682;2023-08-08T12:58:54;5.50;;;2.63;;
71610;SDS011;59459;51.172;6.682;2023-08-08T13:01:20;7.57;;;3.07;;
71610;SDS011;59459;51.172;6.682;2023-08-08T13:03:45;5.90;;;2.73;;
71610;SDS011;59459;51.172;6.682;2023-08-08T13:06:11;6.23;;;2.97;;
71610;SDS011;59459;51.172;6.682;2023-08-08T13:08:37;6.27;;;3.17;;
71610;SDS011;59459;51.172;6.682;2023-08-08T13:11:02;5.32;;;2.35;;
71610;SDS011;59459;51.172;6.682;2023-08-08T13:13:27;5.97;;;2.50;;
71610;SDS011;59459;51.172;6.682;2023-08-08T13:15:52;7.63;;;3.00;;
71610;SDS011;59459;51.172;6.682;2023-08-08T13:18:18;5.00;;;2.47;;
71610;SDS011;59459;51.172;6.682;2023-08-08T13:20:43;6.00;;;2.70;;
71610;SDS011;59459;51.172;6.682;2023-08-08T13:23:08;6.13;;;2.73;;
71610;SDS011;59459;51.172;6.682;2023-08-08T13:25:33;5.53;;;2.40;;
71610;SDS011;59459;51.172;6.682;2023-08-08T13:27:59;5.00;;;2.50;;
71610;SDS011;59459;51.172;6.682;2023-08-08T13:30:25;5.30;;;2.27;;
71610;SDS011;59459;51.172;6.682;2023-08-08T13:32:51;6.60;;;3.03;;
71610;SDS011;59459;51.172;6.682;2023-08-08T13:35:16;6.13;;;2.20;;
71610;SDS011;59459;51.172;6.682;2023-08-08T13:37:41;5.63;;;2.60;;
71610;SDS011;59459;51.172;6.682;2023-08-08T13:40:07;5.93;;;2.43;;
71610;SDS011;59459;51.172;6.682;2023-08-08T13:42:32;5.93;;;2.70;;
71610;SDS011;59459;51.172;6.682;2023-08-08T13:44:57;6.57;;;2.30;;
71610;SDS011;59459;51.172;6.682;2023-08-08T13:47:23;6.30;;;2.03;;
71610;SDS011;59459;51.172;6.682;2023-08-08T13:49:48;7.87;;;2.43;;
71610;SDS011;59459;51.172;6.682;2023-08-08T13:52:13;5.83;;;2.10;;
71610;SDS011;59459;51.172;6.682;2023-08-08T13:54:38;5.75;;;2.03;;
71610;SDS011;59459;51.172;6.682;2023-08-08T13:57:04;7.27;;;2.60;;
71610;SDS011;59459;51.172;6.682;2023-08-08T13:59:29;8.60;;;2.70;;
71610;SDS011;59459;51.172;6.682;2023-08-08T14:01:54;4.93;;;2.27;;
71610;SDS011;59459;51.172;6.682;2023-08-08T14:04:20;4.93;;;1.87;;
71610;SDS011;59459;51.172;6.682;2023-08-08T14:06:45;4.00;;;1.50;;
71610;SDS011;59459;51.172;6.682;2023-08-08T14:09:10;4.23;;;1.50;;
71610;SDS011;59459;51.172;6.682;2023-08-08T14:11:35;3.73;;;1.60;;
71610;SDS011;59459;51.172;6.682;2023-08-08T14:14:00;3.70;;;1.80;;
71610;SDS011;59459;51.172;6.682;2023-08-08T14:16:26;5.23;;;1.90;;
71610;SDS011;59459;51.172;6.682;2023-08-08T14:18:51;5.93;;;2.20;;
71610;SDS011;59459;51.172;6.682;2023-08-08T14:21:17;6.60;;;1.75;;
71610;SDS011;59459;51.172;6.682;2023-08-08T14:23:42;4.23;;;2.23;;
71610;SDS011;59459;51.172;6.682;2023-08-08T14:26:07;4.10;;;1.80;;
71610;SDS011;59459;51.172;6.682;2023-08-08T14:28:32;4.57;;;1.70;;
71610;SDS011;59459;51.172;6.682;2023-08-08T14:30:58;5.07;;;1.90;;
71610;SDS011;59459;51.172;6.682;2023-08-08T14:33:23;4.27;;;2.10;;
71610;SDS011;59459;51.172;6.682;2023-08-08T14:35:48;5.53;;;2.10;;
71610;SDS011;59459;51.172;6.682;2023-08-08T14:38:13;3.97;;;1.97;;